createdAt,value
2023-03-20T00:01:17.864Z,10.17
2023-03-20T00:03:45.059Z,10.15
2023-03-20T00:06:23.243Z,10.11
2023-03-20T00:08:52.658Z,10.15
2023-03-20T00:11:29.512Z,10.10
2023-03-20T00:14:02.395Z,10.09
2023-03-20T00:16:41.502Z,10.05
2023-03-20T00:19:18.206Z,10.06
2023-03-20T00:21:47.565Z,10.06
2023-03-20T00:24:15.510Z,10.06
2023-03-20T00:26:44.130Z,10.04
2023-03-20T00:29:36.048Z,10.03
2023-03-20T00:32:04.184Z,10.01
2023-03-20T00:34:31.295Z,10.00
2023-03-20T00:36:58.277Z,10.02
2023-03-20T00:39:25.139Z,10.01
2023-03-20T00:42:01.867Z,9.95
2023-03-20T00:44:43.344Z,9.92
2023-03-20T00:47:21.965Z,9.88
2023-03-20T00:49:50.913Z,9.89
2023-03-20T00:52:22.515Z,9.88
2023-03-20T00:54:51.543Z,9.87
2023-03-20T00:57:24.590Z,9.82
2023-03-20T01:00:01.953Z,9.76
2023-03-20T01:02:31.863Z,9.77
2023-03-20T01:05:00.387Z,9.73
2023-03-20T01:07:28.082Z,9.66
2023-03-20T01:09:56.841Z,9.60
2023-03-20T01:12:23.962Z,9.58
2023-03-20T01:14:54.782Z,9.54
2023-03-20T01:17:23.663Z,9.52
2023-03-20T01:19:50.594Z,9.55
2023-03-20T01:22:20.671Z,9.56
2023-03-20T01:24:48.022Z,9.55
2023-03-20T01:27:17.612Z,9.54
2023-03-20T01:29:45.044Z,9.54
2023-03-20T01:32:15.136Z,9.58
2023-03-20T01:34:44.749Z,9.59
2023-03-20T01:37:26.792Z,9.54
2023-03-20T01:39:57.284Z,9.61
2023-03-20T01:42:25.105Z,9.65
2023-03-20T01:44:52.944Z,9.68
2023-03-20T01:47:23.742Z,9.61
2023-03-20T01:50:23.045Z,9.55
2023-03-20T01:52:58.400Z,9.58
2023-03-20T01:55:26.554Z,9.60
2023-03-20T01:58:04.154Z,9.55
2023-03-20T02:00:33.019Z,9.52
2023-03-20T02:03:00.564Z,9.50
2023-03-20T02:05:47.872Z,9.50
2023-03-20T02:08:29.940Z,9.45
2023-03-20T02:11:02.402Z,9.40
2023-03-20T02:13:32.772Z,9.40
2023-03-20T02:15:59.635Z,9.43
2023-03-20T02:18:44.456Z,9.42
2023-03-20T02:21:33.173Z,9.39
2023-03-20T02:24:19.338Z,9.31
2023-03-20T02:27:23.682Z,9.27
2023-03-20T02:30:26.236Z,9.23
2023-03-20T02:33:03.392Z,9.22
2023-03-20T02:35:55.695Z,9.16
2023-03-20T02:38:27.124Z,9.17
2023-03-20T02:41:03.319Z,9.10
2023-03-20T02:43:36.937Z,9.06
2023-03-20T02:46:25.873Z,8.98
2023-03-20T02:48:58.105Z,8.99
2023-03-20T02:51:36.448Z,8.93
2023-03-20T02:54:29.786Z,8.95
2023-03-20T02:57:14.669Z,8.85
2023-03-20T02:59:54.346Z,8.87
2023-03-20T03:02:53.110Z,8.82
2023-03-20T03:05:27.645Z,8.88
2023-03-20T03:07:59.845Z,8.87
2023-03-20T03:10:36.930Z,8.88
2023-03-20T03:13:07.863Z,8.89
2023-03-20T03:15:43.861Z,8.88
2023-03-20T03:18:16.533Z,8.92
2023-03-20T03:20:45.436Z,8.91
2023-03-20T03:23:25.537Z,8.88
2023-03-20T03:25:56.205Z,8.88
2023-03-20T03:28:47.487Z,8.86
2023-03-20T03:31:18.648Z,8.86
2023-03-20T03:33:51.867Z,8.87
2023-03-20T03:36:29.872Z,8.82
2023-03-20T03:39:27.360Z,8.78
2023-03-20T03:42:02.948Z,8.79
2023-03-20T03:44:45.285Z,8.79
2023-03-20T03:47:25.105Z,8.81
2023-03-20T03:50:10.602Z,8.80
2023-03-20T03:52:39.050Z,8.83
2023-03-20T03:55:28.080Z,8.79
2023-03-20T03:58:15.103Z,8.81
2023-03-20T04:00:44.464Z,8.88
2023-03-20T04:03:12.429Z,8.90
2023-03-20T04:05:44.257Z,8.91
2023-03-20T04:08:11.100Z,8.92
2023-03-20T04:10:40.627Z,8.93
2023-03-20T04:13:08.731Z,8.97
2023-03-20T04:15:36.032Z,9.00
2023-03-20T04:18:05.900Z,9.01
2023-03-20T04:20:33.926Z,8.99
2023-03-20T04:23:02.157Z,8.99
2023-03-20T04:25:29.433Z,8.96
2023-03-20T04:27:57.283Z,8.95
2023-03-20T04:30:56.910Z,8.92
2023-03-20T04:33:38.213Z,8.93
2023-03-20T04:36:31.286Z,8.91
2023-03-20T04:38:58.090Z,8.91
2023-03-20T04:41:26.624Z,8.87
2023-03-20T04:43:55.791Z,8.86
2023-03-20T04:46:23.639Z,8.84
2023-03-20T04:48:51.027Z,8.79
2023-03-20T04:51:18.556Z,8.78
2023-03-20T04:53:49.411Z,8.75
2023-03-20T04:56:16.202Z,8.77
2023-03-20T04:58:43.129Z,8.79
2023-03-20T05:01:10.952Z,8.78
2023-03-20T05:03:37.848Z,8.78
2023-03-20T05:06:05.717Z,8.82
2023-03-20T05:08:34.318Z,8.84
2023-03-20T05:11:01.256Z,8.86
2023-03-20T05:13:50.538Z,8.90
2023-03-20T05:16:40.888Z,8.96
2023-03-20T05:19:26.349Z,9.04
2023-03-20T05:22:06.166Z,9.08
2023-03-20T05:25:08.644Z,9.15
2023-03-20T05:27:47.424Z,9.24
2023-03-20T05:30:33.409Z,9.30
2023-03-20T05:33:18.742Z,9.38
2023-03-20T05:36:07.508Z,9.45
2023-03-20T05:39:12.922Z,9.50
2023-03-20T05:41:46.452Z,9.52
2023-03-20T05:44:32.247Z,9.53
2023-03-20T05:47:18.776Z,9.58
2023-03-20T05:49:57.646Z,9.61
2023-03-20T05:52:30.449Z,9.64
2023-03-20T05:55:06.564Z,9.73
2023-03-20T05:57:59.928Z,9.84
2023-03-20T06:00:40.120Z,9.97
2023-03-20T06:03:36.926Z,10.09
2023-03-20T06:06:10.815Z,10.18
2023-03-20T06:08:38.016Z,10.31
2023-03-20T06:11:06.585Z,10.42
2023-03-20T06:13:36.125Z,10.52
2023-03-20T06:16:03.460Z,10.66
2023-03-20T06:18:31.586Z,10.87
2023-03-20T06:20:59.270Z,11.05
2023-03-20T06:23:29.167Z,11.28
2023-03-20T06:25:56.263Z,11.50
2023-03-20T06:28:24.656Z,11.70
2023-03-20T06:30:59.951Z,11.78
2023-03-20T06:33:27.185Z,11.86
2023-03-20T06:35:59.844Z,11.93
2023-03-20T06:38:29.479Z,12.06
2023-03-20T06:40:56.508Z,12.23
2023-03-20T06:43:23.326Z,12.36
2023-03-20T06:45:52.669Z,12.43
2023-03-20T06:48:25.801Z,12.50
2023-03-20T06:50:53.168Z,12.62
2023-03-20T06:53:23.772Z,12.80
2023-03-20T06:56:05.736Z,13.22
2023-03-20T06:58:32.754Z,13.62
2023-03-20T07:00:59.797Z,14.12
2023-03-20T07:03:26.717Z,14.67
2023-03-20T07:05:53.989Z,15.29
2023-03-20T07:08:22.625Z,15.97
2023-03-20T07:10:49.952Z,16.66
2023-03-20T07:13:16.694Z,17.18
2023-03-20T07:15:57.530Z,17.47
2023-03-20T07:18:29.180Z,17.58
2023-03-20T07:21:01.833Z,17.36
2023-03-20T07:23:34.447Z,17.58
2023-03-20T07:26:02.362Z,17.54
2023-03-20T07:28:29.486Z,17.41
2023-03-20T07:31:22.065Z,17.36
2023-03-20T07:33:53.589Z,17.51
2023-03-20T07:36:20.470Z,17.59
2023-03-20T07:38:47.562Z,17.60
2023-03-20T07:41:14.374Z,17.68
2023-03-20T07:43:47.160Z,17.94
2023-03-20T07:46:52.409Z,18.18
2023-03-20T07:49:22.998Z,18.11
2023-03-20T07:51:50.937Z,17.99
2023-03-20T07:54:18.020Z,17.98
2023-03-20T07:56:46.011Z,17.92
2023-03-20T07:59:14.511Z,17.79
2023-03-20T08:01:41.439Z,17.86
2023-03-20T08:04:08.839Z,17.98
2023-03-20T08:06:36.117Z,18.14
2023-03-20T08:09:03.057Z,18.13
2023-03-20T08:11:29.786Z,18.24
2023-03-20T08:13:56.588Z,18.29
2023-03-20T08:16:23.461Z,18.33
2023-03-20T08:18:50.773Z,18.26
2023-03-20T08:21:17.892Z,18.19
2023-03-20T08:23:44.647Z,17.96
2023-03-20T08:26:11.499Z,17.70
2023-03-20T08:28:47.458Z,17.62
2023-03-20T08:31:16.139Z,17.83
2023-03-20T08:33:42.971Z,17.94
2023-03-20T08:36:10.006Z,18.26
2023-03-20T08:38:36.992Z,18.37
2023-03-20T08:41:03.842Z,18.51
2023-03-20T08:43:30.581Z,18.50
2023-03-20T08:45:57.440Z,18.49
2023-03-20T08:48:24.318Z,18.71
2023-03-20T08:50:51.247Z,18.92
2023-03-20T08:53:19.092Z,19.06
2023-03-20T08:55:51.729Z,19.12
2023-03-20T08:58:19.524Z,19.28
2023-03-20T09:00:46.790Z,19.41
2023-03-20T09:03:18.955Z,19.48
2023-03-20T09:05:47.851Z,19.48
2023-03-20T09:08:14.633Z,19.41
2023-03-20T09:10:42.000Z,19.26
2023-03-20T09:13:25.833Z,19.11
2023-03-20T09:15:54.060Z,18.98
2023-03-20T09:18:21.502Z,19.11
2023-03-20T09:20:48.712Z,19.21
2023-03-20T09:23:15.463Z,19.28
2023-03-20T09:25:42.180Z,19.24
2023-03-20T09:28:08.961Z,19.23
2023-03-20T09:30:36.493Z,19.33
2023-03-20T09:33:03.408Z,19.27
2023-03-20T09:35:30.181Z,19.04
2023-03-20T09:37:56.999Z,18.91
2023-03-20T09:40:55.971Z,18.76
2023-03-20T09:43:41.123Z,18.76
2023-03-20T09:46:20.337Z,18.59
2023-03-20T09:48:59.518Z,18.63
2023-03-20T09:51:43.444Z,18.50
2023-03-20T09:54:53.082Z,18.41
2023-03-20T09:57:28.665Z,18.54
2023-03-20T10:00:01.450Z,18.51
2023-03-20T10:02:49.045Z,18.30
2023-03-20T10:05:31.242Z,18.05
2023-03-20T10:08:04.747Z,18.17
2023-03-20T10:10:50.567Z,18.13
2023-03-20T10:13:37.830Z,18.28
2023-03-20T10:16:31.912Z,18.31
2023-03-20T10:19:27.864Z,18.28
2023-03-20T10:22:29.248Z,18.35
2023-03-20T10:25:16.974Z,18.37
2023-03-20T10:28:00.443Z,18.41
2023-03-20T10:30:27.152Z,18.09
2023-03-20T10:33:12.386Z,18.30
2023-03-20T10:35:43.320Z,18.41
2023-03-20T10:38:39.187Z,18.42
2023-03-20T10:41:14.413Z,18.44
2023-03-20T10:43:43.519Z,18.57
2023-03-20T10:46:31.906Z,18.47
2023-03-20T10:49:25.674Z,18.38
2023-03-20T10:51:55.919Z,18.36
2023-03-20T10:54:40.994Z,18.27
2023-03-20T10:57:18.024Z,18.30
2023-03-20T10:59:50.306Z,18.34
2023-03-20T11:02:19.031Z,18.30
2023-03-20T11:04:46.222Z,18.25
2023-03-20T11:07:12.866Z,18.28
2023-03-20T11:09:39.693Z,18.32
2023-03-20T11:12:14.422Z,18.33
2023-03-20T11:14:41.262Z,18.35
2023-03-20T11:17:08.095Z,18.40
2023-03-20T11:19:38.201Z,18.58
2023-03-20T11:22:25.541Z,18.68
2023-03-20T11:25:02.931Z,18.84
2023-03-20T11:27:33.193Z,18.88
2023-03-20T11:30:04.626Z,18.91
2023-03-20T11:32:45.785Z,18.87
2023-03-20T11:35:22.945Z,18.69
2023-03-20T11:37:52.708Z,18.82
2023-03-20T11:40:33.262Z,18.86
2023-03-20T11:43:03.948Z,19.10
2023-03-20T11:45:39.907Z,19.09
2023-03-20T11:48:14.774Z,19.24
2023-03-20T11:50:50.408Z,19.38
2023-03-20T11:53:22.757Z,19.39
2023-03-20T11:56:26.650Z,19.28
2023-03-20T11:58:57.933Z,19.46
2023-03-20T12:01:27.185Z,19.45
2023-03-20T12:04:07.198Z,19.47
2023-03-20T12:06:52.750Z,19.51
2023-03-20T12:09:48.636Z,19.70
2023-03-20T12:12:51.842Z,19.93
2023-03-20T12:15:40.571Z,20.04
2023-03-20T12:18:15.755Z,20.28
2023-03-20T12:20:58.511Z,20.40
2023-03-20T12:23:41.278Z,20.47
2023-03-20T12:26:39.848Z,20.19
2023-03-20T12:29:30.382Z,20.09
2023-03-20T12:32:21.365Z,19.79
2023-03-20T12:34:58.925Z,19.67
2023-03-20T12:37:26.129Z,19.69
2023-03-20T12:40:01.849Z,19.53
2023-03-20T12:42:57.411Z,19.31
2023-03-20T12:45:39.690Z,18.90
2023-03-20T12:48:26.835Z,18.74
2023-03-20T12:51:19.440Z,18.49
2023-03-20T12:54:00.687Z,18.52
2023-03-20T12:56:50.474Z,18.54
2023-03-20T12:59:41.265Z,18.54
2023-03-20T13:02:24.552Z,18.56
2023-03-20T13:04:58.237Z,18.29
2023-03-20T13:07:43.396Z,18.57
2023-03-20T13:10:10.365Z,18.71
2023-03-20T13:12:39.853Z,18.80
2023-03-20T13:15:15.765Z,18.82
2023-03-20T13:18:08.872Z,18.81
2023-03-20T13:20:48.774Z,18.84
2023-03-20T13:23:52.919Z,18.98
2023-03-20T13:26:33.956Z,19.23
2023-03-20T13:29:27.895Z,19.29
2023-03-20T13:32:21.145Z,19.41
2023-03-20T13:35:05.002Z,19.48
2023-03-20T13:37:40.836Z,19.56
2023-03-20T13:40:34.478Z,19.41
2023-03-20T13:43:24.400Z,19.53
2023-03-20T13:46:01.741Z,19.46
2023-03-20T13:48:36.169Z,19.46
2023-03-20T13:51:11.687Z,19.44
2023-03-20T13:54:12.523Z,19.11
2023-03-20T13:56:46.513Z,18.93
2023-03-20T13:59:30.844Z,18.82
2023-03-20T14:02:09.977Z,18.63
2023-03-20T14:04:37.608Z,18.50
2023-03-20T14:07:28.971Z,18.29
2023-03-20T14:09:56.494Z,18.22
2023-03-20T14:12:27.190Z,18.07
2023-03-20T14:14:57.314Z,18.11
2023-03-20T14:17:27.563Z,18.00
2023-03-20T14:19:55.582Z,17.91
2023-03-20T14:22:28.829Z,17.81
2023-03-20T14:24:55.394Z,17.38
2023-03-20T14:27:36.858Z,17.59
2023-03-20T14:30:31.464Z,17.49
2023-03-20T14:33:31.384Z,17.41
2023-03-20T14:36:20.842Z,17.51
2023-03-20T14:38:59.840Z,17.62
2023-03-20T14:41:59.552Z,17.59
2023-03-20T14:45:05.231Z,17.63
2023-03-20T14:48:02.035Z,17.80
2023-03-20T14:50:46.912Z,17.91
2023-03-20T14:53:24.233Z,18.04
2023-03-20T14:55:56.924Z,18.15
2023-03-20T14:58:55.844Z,18.18
2023-03-20T15:01:22.514Z,18.34
2023-03-20T15:03:59.656Z,18.43
2023-03-20T15:06:28.747Z,18.51
2023-03-20T15:09:08.175Z,18.41
2023-03-20T15:11:35.658Z,18.58
2023-03-20T15:14:06.101Z,18.46
2023-03-20T15:16:35.036Z,18.37
2023-03-20T15:19:04.511Z,18.34
2023-03-20T15:21:41.277Z,18.36
2023-03-20T15:24:08.451Z,18.38
2023-03-20T15:26:36.635Z,18.33
2023-03-20T15:29:07.858Z,18.16
2023-03-20T15:31:37.082Z,18.17
2023-03-20T15:34:13.287Z,18.11
2023-03-20T15:36:40.985Z,18.00
2023-03-20T15:39:15.985Z,17.91
2023-03-20T15:41:47.551Z,17.82
2023-03-20T15:44:33.979Z,17.74
2023-03-20T15:47:03.655Z,17.72
2023-03-20T15:49:33.218Z,17.63
2023-03-20T15:52:24.493Z,17.48
2023-03-20T15:54:51.403Z,17.49
2023-03-20T15:57:36.554Z,17.40
2023-03-20T16:00:06.165Z,17.33
2023-03-20T16:02:34.841Z,17.26
2023-03-20T16:05:01.735Z,17.23
2023-03-20T16:07:31.834Z,17.18
2023-03-20T16:09:59.656Z,17.12
2023-03-20T16:12:27.252Z,17.05
2023-03-20T16:14:55.010Z,17.03
2023-03-20T16:17:24.900Z,16.94
2023-03-20T16:19:52.063Z,16.91
2023-03-20T16:22:32.088Z,16.81
2023-03-20T16:25:01.745Z,16.80
2023-03-20T16:27:34.928Z,16.76
2023-03-20T16:30:09.652Z,16.71
2023-03-20T16:32:45.702Z,16.69
2023-03-20T16:35:22.018Z,16.63
2023-03-20T16:38:00.791Z,16.61
2023-03-20T16:40:37.851Z,16.57
2023-03-20T16:43:28.511Z,16.58
2023-03-20T16:45:57.480Z,16.57
2023-03-20T16:48:32.142Z,16.60
2023-03-20T16:51:02.576Z,16.59
2023-03-20T16:53:36.027Z,16.55
2023-03-20T16:56:05.065Z,16.55
2023-03-20T16:58:33.704Z,16.54
2023-03-20T17:01:06.205Z,16.51
2023-03-20T17:03:40.036Z,16.49
2023-03-20T17:06:11.013Z,16.52
2023-03-20T17:08:41.841Z,16.50
2023-03-20T17:11:15.465Z,16.42
2023-03-20T17:13:42.707Z,16.36
2023-03-20T17:16:20.233Z,16.32
2023-03-20T17:18:53.370Z,16.30
2023-03-20T17:21:20.020Z,16.00
2023-03-20T17:23:46.720Z,16.21
2023-03-20T17:26:13.864Z,16.22
2023-03-20T17:28:42.107Z,16.21
2023-03-20T17:31:16.250Z,16.16
2023-03-20T17:33:43.671Z,16.17
2023-03-20T17:36:19.132Z,16.17
2023-03-20T17:38:46.469Z,16.18
2023-03-20T17:41:18.152Z,16.17
2023-03-20T17:43:45.915Z,16.21
2023-03-20T17:46:25.766Z,16.13
2023-03-20T17:48:57.398Z,16.17
2023-03-20T17:51:24.415Z,16.20
2023-03-20T17:53:56.138Z,16.21
2023-03-20T17:56:23.725Z,16.18
2023-03-20T17:58:50.967Z,16.14
2023-03-20T18:01:18.060Z,16.12
2023-03-20T18:03:44.871Z,16.08
2023-03-20T18:06:29.900Z,15.98
2023-03-20T18:08:58.514Z,15.92
2023-03-20T18:11:26.586Z,15.86
2023-03-20T18:13:53.481Z,15.77
2023-03-20T18:16:23.573Z,15.69
2023-03-20T18:18:51.460Z,15.65
2023-03-20T18:21:18.715Z,15.59
2023-03-20T18:23:45.983Z,15.54
2023-03-20T18:26:21.389Z,15.41
2023-03-20T18:28:49.158Z,15.40
2023-03-20T18:31:18.993Z,15.35
2023-03-20T18:33:51.344Z,15.31
2023-03-20T18:36:20.609Z,15.25
2023-03-20T18:38:47.740Z,15.25
2023-03-20T18:41:15.347Z,15.21
2023-03-20T18:43:43.445Z,15.15
2023-03-20T18:46:16.497Z,15.08
2023-03-20T18:48:44.472Z,15.04
2023-03-20T18:51:11.833Z,15.00
2023-03-20T18:53:38.821Z,14.93
2023-03-20T18:56:07.220Z,14.91
2023-03-20T18:58:36.482Z,14.88
2023-03-20T19:01:03.646Z,14.80
2023-03-20T19:03:30.462Z,14.74
2023-03-20T19:05:58.710Z,14.70
2023-03-20T19:08:25.829Z,14.69
2023-03-20T19:10:52.639Z,14.68
2023-03-20T19:13:21.415Z,14.62
2023-03-20T19:15:48.495Z,14.61
2023-03-20T19:18:18.191Z,14.60
2023-03-20T19:20:48.141Z,14.62
2023-03-20T19:23:17.248Z,14.62
2023-03-20T19:25:46.296Z,14.65
2023-03-20T19:28:40.774Z,14.58
2023-03-20T19:31:09.761Z,14.66
2023-03-20T19:33:38.492Z,14.71
2023-03-20T19:36:06.666Z,14.74
2023-03-20T19:38:34.087Z,14.75
2023-03-20T19:41:02.609Z,14.76
2023-03-20T19:43:29.606Z,14.77
2023-03-20T19:45:58.840Z,14.78
2023-03-20T19:48:46.025Z,14.75
2023-03-20T19:51:22.402Z,14.76
2023-03-20T19:53:50.214Z,14.78
2023-03-20T19:56:18.338Z,14.80
2023-03-20T19:58:45.352Z,14.84
2023-03-20T20:01:24.528Z,14.79
2023-03-20T20:03:57.720Z,14.83
2023-03-20T20:06:30.124Z,14.83
2023-03-20T20:08:58.953Z,14.89
2023-03-20T20:11:25.717Z,14.92
2023-03-20T20:14:09.715Z,14.94
2023-03-20T20:16:40.064Z,14.91
2023-03-20T20:19:07.318Z,14.90
2023-03-20T20:24:21.612Z,14.88
2023-03-20T20:26:56.833Z,14.88
2023-03-20T20:29:33.985Z,14.86
2023-03-20T20:32:01.111Z,14.82
2023-03-20T20:40:04.137Z,14.76
2023-03-20T20:42:31.177Z,14.76
2023-03-20T20:44:57.904Z,14.74
2023-03-20T20:47:24.605Z,14.73
2023-03-20T20:49:51.611Z,14.71
2023-03-20T20:52:18.297Z,14.68
2023-03-20T20:54:45.054Z,14.64
2023-03-20T20:57:12.466Z,14.57
2023-03-20T20:59:40.489Z,14.54
2023-03-20T21:02:13.012Z,14.53
2023-03-20T21:04:41.959Z,14.45
2023-03-20T21:07:12.299Z,14.46
2023-03-20T21:09:40.043Z,14.44
2023-03-20T21:12:08.236Z,14.41
2023-03-20T21:14:35.513Z,14.35
2023-03-20T21:17:02.752Z,14.31
2023-03-20T21:19:31.016Z,14.26
2023-03-20T21:21:57.693Z,14.25
2023-03-20T21:24:33.840Z,14.23
2023-03-20T21:27:03.596Z,14.22
2023-03-20T21:29:30.758Z,14.19
2023-03-20T21:31:57.630Z,14.13
2023-03-20T21:34:42.990Z,14.06
2023-03-20T21:40:16.292Z,14.05
2023-03-20T21:42:43.108Z,14.04
2023-03-20T21:46:13.547Z,14.00
2023-03-20T21:48:42.548Z,13.99
2023-03-20T21:54:38.372Z,13.95
2023-03-20T22:02:09.565Z,13.96
2023-03-20T22:05:28.421Z,13.93
2023-03-20T22:07:58.138Z,13.93
2023-03-20T22:11:18.158Z,13.92
2023-03-20T22:13:54.701Z,13.86
2023-03-20T22:16:41.072Z,13.87
2023-03-20T22:22:00.046Z,13.82
2023-03-20T22:27:42.924Z,13.83
2023-03-20T22:30:30.874Z,13.80
2023-03-20T22:36:15.662Z,13.76
2023-03-20T22:44:34.000Z,13.70
2023-03-20T22:46:44.774Z,13.68
2023-03-20T22:49:12.296Z,13.69
2023-03-20T22:51:52.143Z,13.68
2023-03-20T22:54:24.600Z,13.66
2023-03-20T22:56:51.272Z,13.66
2023-03-20T22:59:22.953Z,13.61
2023-03-20T23:01:49.736Z,13.58
2023-03-20T23:04:16.561Z,13.57
2023-03-20T23:06:43.287Z,13.56
2023-03-20T23:09:15.278Z,13.53
2023-03-20T23:11:42.942Z,13.45
2023-03-20T23:14:28.370Z,13.47
2023-03-20T23:16:55.654Z,13.45
2023-03-20T23:19:22.503Z,13.43
2023-03-20T23:21:49.407Z,13.41
2023-03-20T23:24:16.964Z,13.36
2023-03-20T23:26:43.768Z,13.33
2023-03-20T23:29:10.598Z,13.33
2023-03-20T23:31:37.343Z,13.36
2023-03-20T23:34:04.085Z,13.34
2023-03-20T23:36:36.977Z,13.31
2023-03-20T23:39:09.201Z,13.29
2023-03-20T23:42:04.660Z,13.31
2023-03-20T23:44:22.739Z,13.32
2023-03-20T23:46:49.583Z,13.33
2023-03-20T23:49:16.823Z,13.34
2023-03-20T23:51:44.064Z,13.32
2023-03-20T23:54:11.221Z,13.29
2023-03-20T23:56:38.080Z,13.25
2023-03-20T23:59:14.954Z,13.22
